Sonoma, California
Current Conditions -  °F | °C
As of 4:54 PM on Monday 22 Dec 2014 (Local Time) from KAPC Reporting Station
Clear Clear  
Wind Chill: 56°   Ceiling: Unl
Heat Index: 56°   Visibility: 10mi
Dew Point: 54°   Wind: 7mph
Humidity: 93%   Direction: 200°SSW
Pressure: 30.18"   Gusts: NA
Location:  38.29°N, 122.45°W
Report Text: KAPC 230054Z AUTO 20006KT 10SM CLR 13/12 A3018 RMK AO2 SLP211 T01330122 TSNO
Loading
Personal Weather Stations






























Interactive Weather Map New forecast layout! Learn more

10-Day Weather Forecast

Advertisements
Track Severe Weather on mobile